Time;durP1;ratioP1;P1;durP2;ratioP2;P2;SDS_P1;SDS_P2;PMS_P1;PMS_P2;Temp;Humidity;BMP_temperature;BMP_pressure;BME280_temperature;BME280_humidity;BME280_pressure;Samples;Min_cycle;Max_cycle;Signal;HPM_P1;HPM_P2
2021/12/10 00:01:07;;;;;;;8.17;4.30;;;-4.10;99.90;;;;;;5035318;28;20184;-74
2021/12/10 00:03:47;;;;;;;12.73;4.07;;;-5.10;99.90;;;;;;5036577;28;20471;-77
2021/12/10 00:06:31;;;;;;;10.17;4.83;;;-5.30;99.90;;;;;;5036163;28;20464;-78
2021/12/10 00:09:05;;;;;;;5.03;3.40;;;-5.00;99.90;;;;;;5036011;28;20631;-78
2021/12/10 00:11:44;;;;;;;9.33;3.27;;;-4.50;99.90;;;;;;5036268;28;20401;-76
2021/12/10 00:14:10;;;;;;;7.13;3.40;;;-5.40;99.90;;;;;;5036115;28;20452;-81
2021/12/10 00:16:38;;;;;;;8.43;3.77;;;-4.50;99.90;;;;;;5035070;28;20493;-78
2021/12/10 00:19:18;;;;;;;8.03;3.30;;;-4.40;99.90;;;;;;5036322;28;20394;-75
2021/12/10 00:21:46;;;;;;;3.70;3.07;;;-5.00;99.90;;;;;;5036127;28;20401;-79
2021/12/10 00:24:12;;;;;;;6.47;3.27;;;-5.30;99.90;;;;;;5035804;28;20868;-81
2021/12/10 00:26:39;;;;;;;17.37;4.27;;;-5.20;99.90;;;;;;5035339;28;20403;-76
2021/12/10 00:29:07;;;;;;;4.83;4.33;;;-5.10;99.90;;;;;;5036447;28;20393;-79
2021/12/10 00:31:50;;;;;;;15.53;3.77;;;-5.60;99.90;;;;;;5035902;28;20418;-78
2021/12/10 00:34:36;;;;;;;9.97;3.37;;;-5.70;99.90;;;;;;5035980;28;21035;-79
2021/12/10 00:37:07;;;;;;;8.20;3.80;;;-4.80;99.90;;;;;;5035453;28;20479;-76
2021/12/10 00:39:44;;;;;;;9.33;3.57;;;-5.50;99.90;;;;;;5034970;28;20413;-74
2021/12/10 00:42:14;;;;;;;7.13;4.60;;;-5.90;99.90;;;;;;5035705;28;20397;-76
2021/12/10 00:44:40;;;;;;;7.40;3.27;;;-5.70;99.90;;;;;;5035828;28;20496;-74
2021/12/10 00:47:06;;;;;;;6.63;3.40;;;-5.50;99.90;;;;;;5035662;28;20685;-77
2021/12/10 00:49:33;;;;;;;3.23;2.57;;;-4.60;99.90;;;;;;5035874;28;20421;-77
2021/12/10 00:51:59;;;;;;;7.27;3.23;;;-4.80;99.90;;;;;;5035499;28;20172;-75
2021/12/10 00:54:25;;;;;;;3.93;2.63;;;-3.90;99.90;;;;;;5034608;28;20468;-81
2021/12/10 00:56:51;;;;;;;3.67;2.70;;;-4.50;99.90;;;;;;5035753;28;20402;-76
2021/12/10 00:59:20;;;;;;;5.00;2.50;;;-5.00;99.90;;;;;;5034739;28;20173;-74
2021/12/10 01:01:47;;;;;;;8.97;2.90;;;-4.80;99.90;;;;;;5034661;28;20530;-77
2021/12/10 01:04:20;;;;;;;3.13;2.77;;;-4.00;99.90;;;;;;5035545;28;20398;-75
2021/12/10 01:06:48;;;;;;;2.77;2.57;;;-3.80;99.90;;;;;;5035481;28;20402;-76
2021/12/10 01:09:19;;;;;;;4.70;2.43;;;-3.60;99.90;;;;;;5035693;28;20399;-83
2021/12/10 01:11:51;;;;;;;6.13;2.70;;;-5.40;99.90;;;;;;5035782;28;20409;-83
2021/12/10 01:14:51;;;;;;;5.57;2.70;;;-4.20;99.90;;;;;;5034428;28;20450;-74
2021/12/10 01:25:37;;;;;;;4.27;2.57;;;-3.30;99.90;;;;;;5036372;28;20417;-75
2021/12/10 01:28:05;;;;;;;7.47;2.90;;;-4.80;99.90;;;;;;5035525;28;20854;-79
2021/12/10 01:30:35;;;;;;;4.67;2.17;;;-4.10;99.90;;;;;;5034715;28;20422;-78
2021/12/10 01:33:10;;;;;;;5.50;2.27;;;-4.50;99.90;;;;;;5035306;28;20584;-82
2021/12/10 01:35:49;;;;;;;7.33;2.50;;;-5.60;99.90;;;;;;5035100;28;20401;-79
2021/12/10 01:38:16;;;;;;;4.00;2.30;;;-5.30;99.90;;;;;;5037040;28;20409;-81
2021/12/10 01:40:47;;;;;;;4.93;2.23;;;-5.90;99.90;;;;;;5039363;28;20510;-77
2021/12/10 01:43:22;;;;;;;4.00;2.80;;;-4.10;99.90;;;;;;5039135;28;20412;-79
2021/12/10 01:45:54;;;;;;;6.27;2.13;;;-3.10;99.90;;;;;;5039232;28;20701;-75
2021/12/10 01:48:27;;;;;;;5.33;2.33;;;-3.60;99.90;;;;;;5039102;28;20446;-75
2021/12/10 01:50:54;;;;;;;5.93;1.93;;;-4.30;99.90;;;;;;5038775;28;20509;-74
2021/12/10 01:53:25;;;;;;;5.70;2.37;;;-5.50;99.90;;;;;;5038680;28;20461;-76
2021/12/10 01:55:54;;;;;;;5.13;1.50;;;-5.20;99.90;;;;;;5038951;28;20405;-75
2021/12/10 01:58:22;;;;;;;2.70;1.50;;;-3.10;99.90;;;;;;5038919;28;20751;-79
2021/12/10 02:00:57;;;;;;;4.40;1.63;;;-5.40;99.90;;;;;;5038720;28;20464;-76
2021/12/10 02:03:24;;;;;;;3.73;1.60;;;-5.60;99.90;;;;;;5037628;28;21101;-76
2021/12/10 02:05:50;;;;;;;4.27;2.10;;;-4.20;99.90;;;;;;5038535;28;20395;-78
2021/12/10 02:08:17;;;;;;;4.07;1.60;;;-4.80;99.90;;;;;;5037460;28;20831;-74
2021/12/10 02:10:43;;;;;;;5.33;2.63;;;-3.70;99.90;;;;;;5038656;28;20489;-80
2021/12/10 02:13:09;;;;;;;3.83;1.80;;;-5.20;99.90;;;;;;5037470;28;20541;-74
2021/12/10 02:15:36;;;;;;;3.83;1.17;;;-5.50;99.90;;;;;;5037469;28;20431;-74
2021/12/10 02:18:04;;;;;;;7.47;1.37;;;-4.60;99.90;;;;;;5038471;28;20411;-78
2021/12/10 02:20:55;;;;;;;3.47;1.33;;;-4.70;99.90;;;;;;5037133;28;20709;-75
2021/12/10 02:23:22;;;;;;;3.40;0.93;;;-4.60;99.90;;;;;;5038429;28;20425;-76
2021/12/10 02:25:48;;;;;;;5.20;1.17;;;-3.10;99.90;;;;;;5038228;28;20399;-75
2021/12/10 02:28:14;;;;;;;3.73;1.10;;;-4.00;99.90;;;;;;5038479;28;20407;-77
2021/12/10 02:30:41;;;;;;;1.63;1.13;;;-4.50;99.90;;;;;;5037210;28;20231;-77
2021/12/10 02:33:07;;;;;;;3.57;1.00;;;-5.20;99.90;;;;;;5036873;28;20808;-77
2021/12/10 02:35:34;;;;;;;3.67;1.23;;;-5.50;99.90;;;;;;5036814;28;20403;-82
2021/12/10 02:38:01;;;;;;;2.17;0.80;;;-3.30;99.90;;;;;;5038251;28;20406;-80
2021/12/10 02:40:29;;;;;;;2.30;0.90;;;-3.40;99.90;;;;;;5037965;28;20398;-74
2021/12/10 02:42:56;;;;;;;3.23;1.50;;;-5.20;99.90;;;;;;5037013;28;20402;-74
2021/12/10 02:45:23;;;;;;;2.07;0.90;;;-5.30;99.90;;;;;;5038048;28;20403;-76
2021/12/10 02:47:50;;;;;;;1.20;1.10;;;-3.70;99.90;;;;;;5036513;28;20402;-73
2021/12/10 02:50:20;;;;;;;0.60;0.60;;;-3.50;99.90;;;;;;5037638;28;20400;-75
2021/12/10 02:52:46;;;;;;;1.80;0.73;;;-5.40;99.90;;;;;;5037915;28;20398;-74
2021/12/10 02:55:15;;;;;;;2.80;1.03;;;-5.50;99.90;;;;;;5037732;28;20697;-75
2021/12/10 02:57:42;;;;;;;1.30;0.70;;;-5.40;99.90;;;;;;5037938;28;20869;-75
2021/12/10 03:00:13;;;;;;;1.20;0.43;;;-5.20;99.90;;;;;;5036405;28;20415;-74
2021/12/10 03:02:40;;;;;;;2.77;0.77;;;-5.40;99.90;;;;;;5037274;28;20405;-76
2021/12/10 03:05:08;;;;;;;1.40;0.90;;;-3.40;99.90;;;;;;5037463;28;20855;-76
2021/12/10 03:07:37;;;;;;;2.63;0.87;;;-5.60;99.90;;;;;;5037553;28;20398;-76
2021/12/10 03:10:07;;;;;;;3.30;1.63;;;-3.50;99.90;;;;;;5036593;28;20861;-76
2021/12/10 03:12:33;;;;;;;2.37;1.10;;;-5.10;99.90;;;;;;5037537;28;20402;-76
2021/12/10 03:14:59;;;;;;;2.97;0.83;;;-4.60;99.90;;;;;;5036136;28;20458;-77
2021/12/10 03:17:29;;;;;;;1.90;0.80;;;-3.90;99.90;;;;;;5037224;28;20226;-76
2021/12/10 03:19:56;;;;;;;0.63;0.50;;;-4.80;99.90;;;;;;5037162;28;20157;-75
2021/12/10 03:22:22;;;;;;;3.10;1.17;;;-5.40;99.90;;;;;;5037247;28;20425;-79
2021/12/10 03:24:52;;;;;;;1.00;0.80;;;-3.10;99.90;;;;;;5037155;28;20441;-77
2021/12/10 03:27:20;;;;;;;2.67;1.20;;;-4.40;99.90;;;;;;5037104;28;20763;-79
2021/12/10 03:29:48;;;;;;;2.17;0.77;;;-5.40;99.90;;;;;;5037168;28;20405;-78
2021/12/10 03:32:23;;;;;;;2.23;0.97;;;-3.50;99.90;;;;;;5037041;28;20418;-80
2021/12/10 03:34:50;;;;;;;0.83;0.50;;;-4.50;99.90;;;;;;5036008;28;20618;-77
2021/12/10 03:37:18;;;;;;;2.00;0.67;;;-3.60;99.90;;;;;;5035788;28;20453;-79
2021/12/10 03:39:46;;;;;;;2.33;0.73;;;-3.30;99.90;;;;;;5037133;28;20401;-81
2021/12/10 03:42:13;;;;;;;1.93;0.90;;;-4.30;99.90;;;;;;5036714;28;20483;-83
2021/12/10 03:44:39;;;;;;;2.40;0.87;;;-3.50;99.90;;;;;;5036865;28;20417;-79
2021/12/10 03:47:08;;;;;;;0.70;0.70;;;-4.40;99.90;;;;;;5036530;28;20460;-81
2021/12/10 03:49:36;;;;;;;1.00;0.70;;;-4.40;99.90;;;;;;5035625;28;20469;-86
2021/12/10 03:52:04;;;;;;;1.67;0.93;;;-4.90;99.90;;;;;;5035544;28;20406;-82
2021/12/10 03:54:30;;;;;;;3.23;0.70;;;-4.50;99.90;;;;;;5036573;28;20809;-81
2021/12/10 03:56:57;;;;;;;0.90;0.63;;;-4.00;99.90;;;;;;5035600;28;20509;-80
2021/12/10 03:59:24;;;;;;;0.63;0.60;;;-4.40;99.90;;;;;;5036593;28;20398;-82
2021/12/10 04:01:55;;;;;;;2.33;0.50;;;-4.60;99.90;;;;;;5036056;28;20475;-81
2021/12/10 04:04:30;;;;;;;1.13;0.83;;;-4.00;99.90;;;;;;5035395;28;20841;-82
2021/12/10 04:06:58;;;;;;;1.03;0.60;;;-5.70;99.90;;;;;;5036340;28;20405;-81
2021/12/10 04:09:25;;;;;;;0.50;0.50;;;-6.00;99.90;;;;;;5035451;28;20417;-82
2021/12/10 04:11:51;;;;;;;2.13;1.10;;;-3.90;99.90;;;;;;5035324;28;20442;-81
2021/12/10 04:14:18;;;;;;;0.53;0.53;;;-5.00;99.90;;;;;;5035928;28;20454;-81
2021/12/10 04:16:45;;;;;;;2.17;1.73;;;-3.80;99.90;;;;;;5035086;28;20509;-80
2021/12/10 04:19:13;;;;;;;1.17;0.77;;;-4.70;99.90;;;;;;5036262;28;20444;-83
2021/12/10 04:21:41;;;;;;;0.50;0.50;;;-3.70;99.90;;;;;;5035002;28;20410;-81
2021/12/10 04:24:17;;;;;;;0.57;0.50;;;-5.00;99.90;;;;;;5035057;28;20425;-82
2021/12/10 04:26:44;;;;;;;1.00;0.50;;;-4.30;99.90;;;;;;5036035;28;20410;-82
2021/12/10 04:29:10;;;;;;;0.50;0.50;;;-6.00;99.90;;;;;;5035855;28;20402;-80
2021/12/10 04:31:36;;;;;;;4.23;0.80;;;-5.70;99.90;;;;;;5036204;28;20424;-81
2021/12/10 04:34:03;;;;;;;2.57;0.60;;;-6.00;99.90;;;;;;5034903;28;20461;-85
2021/12/10 04:36:29;;;;;;;1.27;1.03;;;-6.00;99.90;;;;;;5035676;28;20196;-83
2021/12/10 04:38:55;;;;;;;1.03;0.70;;;-3.80;99.90;;;;;;5035179;28;20769;-82
2021/12/10 04:41:21;;;;;;;1.37;0.70;;;-3.80;99.90;;;;;;5035869;28;20405;-81
2021/12/10 04:43:47;;;;;;;0.87;0.87;;;-4.20;99.90;;;;;;5034522;28;20440;-80
2021/12/10 04:46:14;;;;;;;0.63;0.60;;;-3.20;99.90;;;;;;5034755;28;20660;-83
2021/12/10 04:48:54;;;;;;;0.53;0.50;;;-3.90;99.90;;;;;;5034530;28;20779;-81
2021/12/10 04:51:26;;;;;;;3.67;0.60;;;-5.40;99.90;;;;;;5034785;28;20414;-80
2021/12/10 04:53:54;;;;;;;0.60;0.60;;;-5.50;99.90;;;;;;5034758;28;20537;-79
2021/12/10 04:56:21;;;;;;;0.63;0.50;;;-4.80;99.90;;;;;;5034630;28;20486;-80
2021/12/10 04:58:47;;;;;;;1.03;0.53;;;-6.10;99.90;;;;;;5034355;28;20402;-78
2021/12/10 05:01:14;;;;;;;0.80;0.60;;;-2.70;99.90;;;;;;5035478;28;20414;-80
2021/12/10 05:03:40;;;;;;;0.50;0.50;;;-4.10;99.90;;;;;;5034549;28;20853;-79
2021/12/10 05:06:07;;;;;;;0.67;0.67;;;-4.40;99.90;;;;;;5035701;28;20408;-79
2021/12/10 05:08:36;;;;;;;2.33;0.53;;;-5.70;99.90;;;;;;5035509;28;20455;-78
2021/12/10 05:11:04;;;;;;;0.60;0.60;;;-3.90;99.90;;;;;;5035688;28;20402;-78
2021/12/10 05:13:31;;;;;;;0.77;0.77;;;-5.00;99.90;;;;;;5038300;28;20445;-82
2021/12/10 05:15:58;;;;;;;1.03;0.60;;;-4.20;99.90;;;;;;5039738;28;20422;-79
2021/12/10 05:18:27;;;;;;;0.60;0.53;;;-4.50;99.90;;;;;;5039473;28;20403;-82
2021/12/10 05:20:55;;;;;;;0.40;0.40;;;-4.10;99.90;;;;;;5039613;28;20536;-78
2021/12/10 05:23:22;;;;;;;0.97;0.60;;;-3.90;99.90;;;;;;5039528;28;20684;-79
2021/12/10 05:25:48;;;;;;;0.47;0.47;;;-6.40;99.90;;;;;;5039360;28;20401;-78
2021/12/10 05:28:14;;;;;;;0.70;0.70;;;-6.20;99.90;;;;;;5039040;28;20402;-81
2021/12/10 05:30:41;;;;;;;0.53;0.53;;;-6.20;99.90;;;;;;5039173;28;20410;-78
2021/12/10 05:33:13;;;;;;;0.80;0.50;;;-6.00;99.90;;;;;;5039162;28;20446;-79
2021/12/10 05:35:39;;;;;;;0.50;0.50;;;-6.10;99.90;;;;;;5038129;28;20500;-80
2021/12/10 05:38:05;;;;;;;1.37;0.60;;;-4.80;99.90;;;;;;5039188;28;20478;-81
2021/12/10 05:40:31;;;;;;;0.70;0.70;;;-4.30;99.90;;;;;;5038091;28;20179;-80
2021/12/10 05:42:57;;;;;;;1.33;0.50;;;-6.00;99.90;;;;;;5038804;28;20661;-82
2021/12/10 05:45:23;;;;;;;1.43;0.60;;;-5.80;99.90;;;;;;5038180;28;20177;-78
2021/12/10 05:47:49;;;;;;;1.50;0.50;;;-6.00;99.90;;;;;;5038993;28;20514;-79
2021/12/10 05:50:18;;;;;;;0.30;0.30;;;-5.70;99.90;;;;;;5039142;28;20406;-81
2021/12/10 05:52:44;;;;;;;0.50;0.40;;;-4.50;99.90;;;;;;5038944;28;20563;-81
2021/12/10 05:55:11;;;;;;;0.60;0.60;;;-4.80;99.90;;;;;;5038826;28;20529;-80
2021/12/10 05:57:37;;;;;;;0.50;0.50;;;-5.70;99.90;;;;;;5037705;28;20175;-78
2021/12/10 06:00:09;;;;;;;0.60;0.60;;;-5.90;99.90;;;;;;5038845;28;20756;-79
2021/12/10 06:02:35;;;;;;;0.50;0.30;;;-6.00;99.90;;;;;;5037824;28;20402;-76
2021/12/10 06:05:01;;;;;;;0.70;0.70;;;-5.20;99.90;;;;;;5038537;28;20680;-78
2021/12/10 06:07:27;;;;;;;1.37;0.87;;;-3.60;99.90;;;;;;5038847;28;20455;-79
2021/12/10 06:09:53;;;;;;;1.43;0.60;;;-4.60;99.90;;;;;;5037633;28;20172;-82
2021/12/10 06:12:18;;;;;;;1.73;0.37;;;-6.30;99.90;;;;;;5037511;28;20311;-83
2021/12/10 06:14:44;;;;;;;0.80;0.80;;;-4.80;99.90;;;;;;5038384;28;20212;-82
2021/12/10 06:17:10;;;;;;;1.60;0.50;;;-3.30;99.90;;;;;;5037705;28;20223;-83
2021/12/10 06:19:36;;;;;;;0.73;0.73;;;-6.30;99.90;;;;;;5038422;28;20584;-83
2021/12/10 06:22:04;;;;;;;1.73;0.70;;;-4.00;99.90;;;;;;5037407;28;20446;-84
2021/12/10 06:24:30;;;;;;;0.40;0.40;;;-6.20;99.90;;;;;;5036651;28;20176;-84
2021/12/10 06:26:57;;;;;;;0.53;0.43;;;-4.30;99.90;;;;;;5038335;28;20487;-84
2021/12/10 06:29:25;;;;;;;0.60;0.60;;;-6.20;99.90;;;;;;5036877;28;20421;-78
2021/12/10 06:31:52;;;;;;;0.70;0.60;;;-6.30;99.90;;;;;;5037037;28;20422;-82
2021/12/10 06:34:18;;;;;;;0.70;0.60;;;-6.30;99.90;;;;;;5036833;28;20457;-80
2021/12/10 06:36:44;;;;;;;0.70;0.70;;;-3.80;99.90;;;;;;5037003;28;20418;-81
2021/12/10 06:39:10;;;;;;;0.43;0.43;;;-4.90;99.90;;;;;;5036771;28;20489;-77
2021/12/10 06:41:36;;;;;;;0.20;0.20;;;-6.00;99.90;;;;;;5037910;28;20441;-81
2021/12/10 06:44:04;;;;;;;0.60;0.60;;;-5.80;99.90;;;;;;5037895;28;20455;-80
2021/12/10 06:46:32;;;;;;;0.87;0.60;;;-6.00;99.90;;;;;;5038133;28;20402;-78
2021/12/10 06:48:58;;;;;;;0.70;0.70;;;-6.20;99.90;;;;;;5037849;28;20425;-81
2021/12/10 06:51:24;;;;;;;0.70;0.70;;;-4.60;99.90;;;;;;5035865;28;20414;-79
2021/12/10 06:53:53;;;;;;;0.73;0.73;;;-6.80;99.90;;;;;;5028006;28;20192;-79
2021/12/10 06:56:22;;;;;;;0.80;0.73;;;-6.50;99.90;;;;;;5032676;28;20179;-77
2021/12/10 06:58:49;;;;;;;1.87;0.80;;;-6.70;99.90;;;;;;5031220;28;20426;-77
2021/12/10 07:01:32;;;;;;;1.43;1.03;;;-7.00;99.90;;;;;;5027935;28;20421;-79
2021/12/10 07:04:00;;;;;;;0.50;0.50;;;-6.60;99.90;;;;;;5037340;28;20409;-78
2021/12/10 07:06:27;;;;;;;1.07;0.53;;;-5.30;99.90;;;;;;5037434;28;20407;-79
2021/12/10 07:08:55;;;;;;;1.17;0.60;;;-5.90;99.90;;;;;;5033593;28;20409;-82
2021/12/10 07:11:21;;;;;;;0.60;0.60;;;-6.10;99.90;;;;;;5017453;28;20403;-83
2021/12/10 07:13:50;;;;;;;0.50;0.50;;;-6.10;99.90;;;;;;5016672;28;20447;-78
2021/12/10 07:16:18;;;;;;;0.70;0.70;;;-4.40;99.90;;;;;;5026242;28;20406;-79
2021/12/10 07:18:45;;;;;;;2.20;1.10;;;-6.10;99.90;;;;;;5035717;28;20402;-80
2021/12/10 07:21:18;;;;;;;0.60;0.60;;;-4.20;99.90;;;;;;5028171;28;20403;-81
2021/12/10 07:23:46;;;;;;;2.67;1.30;;;-6.10;99.90;;;;;;5030613;28;20410;-78
2021/12/10 07:26:14;;;;;;;0.97;0.60;;;-4.80;99.90;;;;;;5024515;28;20935;-78
2021/12/10 07:28:41;;;;;;;0.67;0.50;;;-6.20;99.90;;;;;;5033467;28;20411;-79
2021/12/10 07:31:08;;;;;;;0.40;0.40;;;-4.90;99.90;;;;;;5016856;28;20414;-84
2021/12/10 07:33:34;;;;;;;1.57;1.47;;;-4.40;99.90;;;;;;5017029;28;20477;-79
2021/12/10 07:36:01;;;;;;;0.87;0.87;;;-6.00;99.90;;;;;;5016802;28;20425;-77
2021/12/10 07:38:27;;;;;;;0.80;0.80;;;-5.90;99.90;;;;;;5024006;28;20479;-78
2021/12/10 07:40:53;;;;;;;0.60;0.60;;;-4.80;99.90;;;;;;5023710;28;20395;-78
2021/12/10 07:43:20;;;;;;;0.90;0.53;;;-5.90;99.90;;;;;;5021842;28;20584;-76
2021/12/10 07:45:48;;;;;;;0.60;0.60;;;-6.00;99.90;;;;;;5036398;28;20849;-78
2021/12/10 07:48:18;;;;;;;1.50;1.40;;;-5.90;99.90;;;;;;5036635;28;20444;-78
2021/12/10 07:50:53;;;;;;;0.87;0.87;;;-6.30;99.90;;;;;;5031667;28;20421;-76
2021/12/10 07:53:21;;;;;;;2.20;1.00;;;-5.40;99.90;;;;;;5034993;28;20445;-77
2021/12/10 07:55:48;;;;;;;0.50;0.50;;;-6.80;99.90;;;;;;5036312;28;20414;-76
2021/12/10 07:58:14;;;;;;;0.63;0.63;;;-6.00;99.90;;;;;;5034670;28;20717;-81
2021/12/10 08:00:42;;;;;;;1.50;1.40;;;-7.00;99.90;;;;;;5037008;28;20433;-76
2021/12/10 08:03:09;;;;;;;1.43;0.70;;;-6.70;99.90;;;;;;5036560;28;20432;-83
2021/12/10 08:05:36;;;;;;;0.80;0.80;;;-7.10;99.90;;;;;;5035464;28;20398;-78
2021/12/10 08:08:05;;;;;;;1.17;0.70;;;-7.10;99.90;;;;;;5035759;28;20456;-81
2021/12/10 08:10:31;;;;;;;2.33;0.93;;;-7.50;99.90;;;;;;5036515;28;20394;-80
2021/12/10 08:12:57;;;;;;;0.70;0.70;;;-7.30;99.90;;;;;;5035187;28;20394;-77
2021/12/10 08:15:24;;;;;;;1.07;1.00;;;-5.40;99.90;;;;;;5017683;28;20965;-78
2021/12/10 08:17:50;;;;;;;1.20;1.10;;;-4.90;99.90;;;;;;5016164;28;20204;-75
2021/12/10 08:20:19;;;;;;;0.90;0.90;;;-3.70;99.90;;;;;;5033828;28;20830;-77
2021/12/10 08:22:46;;;;;;;0.83;0.83;;;-5.50;99.90;;;;;;5034910;28;20407;-79
2021/12/10 08:25:12;;;;;;;2.03;1.30;;;-4.20;99.90;;;;;;5034849;28;20434;-75
2021/12/10 08:27:38;;;;;;;1.33;1.10;;;-6.30;99.90;;;;;;5033042;28;20449;-76
2021/12/10 08:30:06;;;;;;;1.50;1.40;;;-6.60;99.90;;;;;;5035580;28;20168;-78
2021/12/10 08:32:33;;;;;;;1.60;1.50;;;-6.00;99.90;;;;;;5035470;28;20442;-82
2021/12/10 08:35:01;;;;;;;1.23;1.23;;;-5.90;99.90;;;;;;5035359;28;20503;-75
2021/12/10 08:37:27;;;;;;;1.73;1.63;;;-6.20;99.90;;;;;;5035475;28;20453;-76
2021/12/10 08:39:53;;;;;;;2.20;1.60;;;-6.00;99.90;;;;;;5035168;28;20434;-80
2021/12/10 08:42:19;;;;;;;1.80;1.70;;;-5.00;99.90;;;;;;5035067;28;20169;-78
2021/12/10 08:44:45;;;;;;;1.73;1.63;;;-5.70;99.90;;;;;;5034854;28;20406;-76
2021/12/10 08:47:15;;;;;;;1.80;1.70;;;-4.80;99.90;;;;;;5034600;28;20225;-89
2021/12/10 08:49:41;;;;;;;1.60;1.50;;;-6.70;99.90;;;;;;5035673;28;20192;-81
2021/12/10 08:52:10;;;;;;;2.67;2.10;;;-6.50;99.90;;;;;;5034356;28;20784;-81
2021/12/10 08:54:37;;;;;;;1.57;1.47;;;-6.80;99.90;;;;;;5035134;28;21060;-80
2021/12/10 08:57:05;;;;;;;2.53;1.70;;;-6.40;99.90;;;;;;5033530;28;20408;-79
2021/12/10 08:59:32;;;;;;;1.50;1.50;;;-6.10;99.90;;;;;;5034399;28;20406;-77
2021/12/10 09:02:02;;;;;;;2.27;1.97;;;-6.10;99.90;;;;;;5034664;28;20425;-78
2021/12/10 09:04:30;;;;;;;2.27;2.07;;;-6.40;99.90;;;;;;5034303;28;20436;-80
2021/12/10 09:07:02;;;;;;;2.73;1.30;;;-7.10;99.90;;;;;;5025628;28;20427;-77
2021/12/10 09:09:30;;;;;;;1.70;1.33;;;-4.70;99.90;;;;;;5032661;28;20479;-76
2021/12/10 09:11:59;;;;;;;1.37;1.27;;;-5.90;99.90;;;;;;5035674;28;20394;-79
2021/12/10 09:14:32;;;;;;;1.67;1.57;;;-6.00;99.90;;;;;;5034903;28;20456;-74
2021/12/10 09:17:01;;;;;;;1.63;1.53;;;-6.00;99.90;;;;;;5034893;28;20413;-75
2021/12/10 09:19:29;;;;;;;1.17;1.17;;;-5.80;99.90;;;;;;5035014;28;20397;-76
2021/12/10 09:21:54;;;;;;;2.07;1.97;;;-5.60;99.90;;;;;;5033903;28;20420;-75
2021/12/10 09:24:21;;;;;;;2.43;2.23;;;-3.50;99.90;;;;;;5033608;28;20861;-77
2021/12/10 09:26:52;;;;;;;1.60;1.50;;;-5.80;99.90;;;;;;5032077;28;20662;-77
2021/12/10 09:29:18;;;;;;;1.70;1.60;;;-5.70;99.90;;;;;;5034746;28;20886;-77
2021/12/10 09:31:45;;;;;;;8.03;1.83;;;-4.00;99.90;;;;;;5034044;28;20425;-77
2021/12/10 09:34:13;;;;;;;1.80;1.70;;;-5.40;99.90;;;;;;5034834;28;20197;-77
2021/12/10 09:36:41;;;;;;;1.20;1.20;;;-5.40;99.90;;;;;;5034587;28;20462;-78
2021/12/10 09:39:09;;;;;;;1.40;1.33;;;-5.10;99.90;;;;;;5034964;28;20398;-77
2021/12/10 09:41:36;;;;;;;1.57;1.53;;;-5.20;99.90;;;;;;5034202;28;20445;-77
2021/12/10 09:44:03;;;;;;;2.17;1.80;;;-3.80;99.90;;;;;;5027086;28;20757;-76
2021/12/10 09:46:29;;;;;;;1.70;1.60;;;-4.80;99.90;;;;;;5025886;28;20418;-78
2021/12/10 09:48:55;;;;;;;1.70;1.60;;;-4.50;99.90;;;;;;5016663;28;20422;-77
2021/12/10 09:51:33;;;;;;;1.80;1.70;;;-5.00;99.90;;;;;;5027111;28;20162;-80
2021/12/10 09:54:02;;;;;;;2.73;1.80;;;-4.90;99.90;;;;;;5019569;28;20192;-78
2021/12/10 09:56:29;;;;;;;2.70;2.17;;;-4.80;99.90;;;;;;5025100;28;20418;-80
2021/12/10 09:59:00;;;;;;;1.60;1.50;;;-3.10;99.90;;;;;;5024730;28;20401;-77
2021/12/10 10:01:31;;;;;;;3.27;3.07;;;-5.00;99.90;;;;;;5028207;28;20691;-79
2021/12/10 10:04:01;;;;;;;3.27;2.30;;;-3.10;99.90;;;;;;5033493;28;20414;-76
2021/12/10 10:06:37;;;;;;;1.70;1.60;;;-5.40;99.90;;;;;;5032599;28;20406;-76
2021/12/10 10:09:05;;;;;;;2.10;1.33;;;-4.10;99.90;;;;;;5038479;28;20868;-77
2021/12/10 10:11:34;;;;;;;2.23;2.13;;;-5.50;99.90;;;;;;5027233;28;20418;-80
2021/12/10 10:14:03;;;;;;;1.70;1.53;;;-3.60;99.90;;;;;;5026603;28;20508;-81
2021/12/10 10:16:30;;;;;;;2.47;2.07;;;-4.60;99.90;;;;;;5018582;28;20396;-79
2021/12/10 10:18:58;;;;;;;2.00;1.90;;;-5.90;99.90;;;;;;5017076;28;20494;-80
2021/12/10 10:21:34;;;;;;;2.20;2.00;;;-5.60;99.90;;;;;;5018307;28;20422;-78
2021/12/10 10:24:09;;;;;;;5.97;1.70;;;-6.00;99.90;;;;;;5018322;28;20406;-79
2021/12/10 10:26:41;;;;;;;1.70;1.60;;;-5.60;99.90;;;;;;5028702;28;20873;-79
2021/12/10 10:29:16;;;;;;;2.20;2.00;;;-2.80;99.90;;;;;;5037221;28;21176;-76
2021/12/10 10:31:48;;;;;;;2.13;1.90;;;-4.80;99.90;;;;;;5036511;28;20461;-77
2021/12/10 10:34:15;;;;;;;2.17;1.93;;;-5.70;99.90;;;;;;5037407;28;21263;-77
2021/12/10 10:36:41;;;;;;;2.20;2.10;;;-5.70;99.90;;;;;;5036673;28;20507;-74
2021/12/10 10:39:14;;;;;;;2.60;1.60;;;-2.90;99.90;;;;;;5036637;28;20409;-81
2021/12/10 10:41:42;;;;;;;4.33;2.53;;;-5.60;99.90;;;;;;5030449;28;20854;-77
2021/12/10 10:44:10;;;;;;;2.43;2.23;;;-3.10;99.90;;;;;;5037652;28;20876;-76
2021/12/10 10:46:36;;;;;;;2.80;2.60;;;-5.10;99.90;;;;;;5037336;28;20402;-74
2021/12/10 10:49:05;;;;;;;2.20;2.10;;;-5.10;99.90;;;;;;5037882;28;20428;-76
2021/12/10 10:51:35;;;;;;;2.47;2.37;;;-5.00;99.90;;;;;;5036642;28;20295;-78
2021/12/10 10:54:04;;;;;;;5.13;2.87;;;-5.30;99.90;;;;;;5036283;28;20893;-77
2021/12/10 10:56:41;;;;;;;2.83;2.57;;;-5.60;99.90;;;;;;5033178;28;20418;-77
2021/12/10 10:59:17;;;;;;;2.87;2.67;;;-3.60;99.90;;;;;;5034247;28;20398;-77
2021/12/10 11:02:07;;;;;;;2.83;2.63;;;-5.80;99.90;;;;;;5020542;28;20414;-77
2021/12/10 11:04:38;;;;;;;2.27;2.17;;;-4.50;99.90;;;;;;5025578;28;20426;-77
2021/12/10 11:07:13;;;;;;;3.97;2.93;;;-5.70;99.90;;;;;;5025107;28;20417;-76
2021/12/10 11:09:52;;;;;;;3.23;2.30;;;-5.60;99.90;;;;;;5026316;28;20406;-77
2021/12/10 11:12:27;;;;;;;2.63;2.40;;;-5.20;99.90;;;;;;5037235;28;20700;-77
2021/12/10 11:14:57;;;;;;;3.83;3.53;;;-5.60;99.90;;;;;;5027772;28;20555;-76
2021/12/10 11:17:35;;;;;;;2.53;2.43;;;-6.20;99.90;;;;;;5029021;28;20839;-76
2021/12/10 11:20:04;;;;;;;3.50;3.20;;;-6.00;99.90;;;;;;5020980;28;20476;-78
2021/12/10 11:22:31;;;;;;;3.20;2.90;;;-5.90;99.90;;;;;;5027903;28;20788;-77
2021/12/10 11:25:11;;;;;;;6.33;4.37;;;-5.80;99.90;;;;;;5027702;28;20406;-79
2021/12/10 11:27:42;;;;;;;3.60;3.20;;;-5.90;99.90;;;;;;5034757;28;20426;-78
2021/12/10 11:30:22;;;;;;;2.77;2.57;;;-4.10;99.90;;;;;;5034770;28;20425;-78
2021/12/10 11:33:13;;;;;;;2.43;2.20;;;-4.50;99.90;;;;;;5036113;28;20424;-78
2021/12/10 11:35:44;;;;;;;2.57;2.47;;;-6.60;99.90;;;;;;5036871;28;20826;-75
2021/12/10 11:38:13;;;;;;;3.37;3.00;;;-6.00;99.90;;;;;;5036202;28;20414;-76
2021/12/10 11:40:50;;;;;;;2.50;2.40;;;-6.40;99.90;;;;;;5036713;28;20382;-76
2021/12/10 11:43:54;;;;;;;3.83;3.40;;;-4.20;99.90;;;;;;5035241;28;20417;-76
2021/12/10 11:46:51;;;;;;;4.43;3.00;;;-6.10;99.90;;;;;;5032925;28;20777;-74
2021/12/10 11:49:33;;;;;;;3.53;3.10;;;-6.20;99.90;;;;;;5033282;28;20426;-77
2021/12/10 11:52:14;;;;;;;3.60;3.30;;;-6.50;99.90;;;;;;5035972;28;20429;-74
2021/12/10 11:54:53;;;;;;;3.50;3.20;;;-6.50;99.90;;;;;;5030583;28;20446;-77
2021/12/10 11:57:39;;;;;;;3.27;3.07;;;-5.20;99.90;;;;;;5035175;28;20390;-78
2021/12/10 12:00:19;;;;;;;3.73;3.43;;;-5.90;99.90;;;;;;5026095;28;20855;-75
2021/12/10 12:02:59;;;;;;;3.30;3.10;;;-6.20;99.90;;;;;;5020902;28;20513;-75
2021/12/10 12:05:31;;;;;;;5.00;4.70;;;-5.80;99.90;;;;;;5024183;28;20434;-74
2021/12/10 12:08:02;;;;;;;3.00;2.80;;;-4.70;99.90;;;;;;5031686;28;20405;-74
2021/12/10 12:10:40;;;;;;;3.23;2.93;;;-3.50;99.90;;;;;;5034592;28;20468;-74
2021/12/10 12:13:50;;;;;;;3.70;3.40;;;-6.90;99.90;;;;;;5031249;28;20424;-78
2021/12/10 12:16:28;;;;;;;3.30;2.57;;;-6.80;99.90;;;;;;5035208;28;20424;-74
2021/12/10 12:19:03;;;;;;;2.80;2.60;;;-6.70;99.90;;;;;;5028605;28;20410;-83
2021/12/10 12:27:15;;;;;;;3.57;2.97;;;-7.20;99.90;;;;;;5036049;28;20389;-74
2021/12/10 12:29:55;;;;;;;3.20;3.00;;;-7.30;99.90;;;;;;5035121;28;20406;-79
2021/12/10 12:32:41;;;;;;;4.13;3.73;;;-7.10;99.90;;;;;;5028543;28;20438;-75
2021/12/10 12:35:21;;;;;;;3.77;3.57;;;-5.50;99.90;;;;;;5034451;28;20548;-77
2021/12/10 12:37:47;;;;;;;4.03;3.63;;;-6.70;99.90;;;;;;5035122;28;20483;-81
2021/12/10 12:40:13;;;;;;;5.60;4.63;;;-4.70;99.90;;;;;;5035717;28;20830;-75
2021/12/10 12:42:45;;;;;;;4.67;3.53;;;-6.50;99.90;;;;;;5034215;28;20172;-83
2021/12/10 12:45:15;;;;;;;4.77;4.27;;;-6.80;99.90;;;;;;5034030;28;20442;-83
2021/12/10 12:47:44;;;;;;;4.50;4.10;;;-5.40;99.90;;;;;;5022112;28;20410;-84
2021/12/10 12:50:16;;;;;;;7.33;6.63;;;-6.70;99.90;;;;;;5003022;28;20422;-78
2021/12/10 12:52:56;;;;;;;5.63;5.13;;;-6.80;99.90;;;;;;5034419;28;20463;-75
2021/12/10 12:55:36;;;;;;;5.17;4.77;;;-4.60;99.90;;;;;;5035260;28;20441;-75
2021/12/10 12:58:09;;;;;;;6.57;5.97;;;-6.70;99.90;;;;;;5035215;28;20398;-74
2021/12/10 13:01:06;;;;;;;8.03;5.70;;;-7.10;99.90;;;;;;5034378;28;20505;-75
2021/12/10 13:03:48;;;;;;;6.53;5.60;;;-7.10;99.90;;;;;;5035384;28;20402;-75
2021/12/10 13:06:19;;;;;;;6.67;6.07;;;-7.00;99.90;;;;;;5018561;28;20395;-80
2021/12/10 13:09:04;;;;;;;6.03;5.43;;;-6.40;99.90;;;;;;5028667;28;20402;-74
2021/12/10 13:14:57;;;;;;;9.40;7.33;;;-6.70;99.90;;;;;;5073066;28;20824;-73
2021/12/10 13:17:26;;;;;;;10.83;8.60;;;-6.60;99.90;;;;;;5040303;28;20398;-75